sensor_id;sensor_type;location;lat;lon;timestamp;P1;durP1;ratioP1;P2;durP2;ratioP2
51612;SDS011;37694;51.748;14.326;2023-03-24T00:00:51;8.70;;;6.75;;
51612;SDS011;37694;51.748;14.326;2023-03-24T00:03:26;8.43;;;6.85;;
51612;SDS011;37694;51.748;14.326;2023-03-24T00:05:54;7.03;;;6.25;;
51612;SDS011;37694;51.748;14.326;2023-03-24T00:08:26;7.85;;;6.63;;
51612;SDS011;37694;51.748;14.326;2023-03-24T00:10:59;10.40;;;6.95;;
51612;SDS011;37694;51.748;14.326;2023-03-24T00:13:28;8.20;;;6.82;;
51612;SDS011;37694;51.748;14.326;2023-03-24T00:15:54;8.43;;;6.68;;
51612;SDS011;37694;51.748;14.326;2023-03-24T00:18:20;8.15;;;7.20;;
51612;SDS011;37694;51.748;14.326;2023-03-24T00:20:47;8.43;;;6.68;;
51612;SDS011;37694;51.748;14.326;2023-03-24T00:23:12;9.02;;;7.20;;
51612;SDS011;37694;51.748;14.326;2023-03-24T00:25:39;9.13;;;6.97;;
51612;SDS011;37694;51.748;14.326;2023-03-24T00:28:05;9.25;;;7.43;;
51612;SDS011;37694;51.748;14.326;2023-03-24T00:30:32;8.82;;;7.38;;
51612;SDS011;37694;51.748;14.326;2023-03-24T00:32:59;8.75;;;7.20;;
51612;SDS011;37694;51.748;14.326;2023-03-24T00:35:26;8.00;;;6.40;;
51612;SDS011;37694;51.748;14.326;2023-03-24T00:37:52;8.77;;;7.38;;
51612;SDS011;37694;51.748;14.326;2023-03-24T00:40:19;8.30;;;7.47;;
51612;SDS011;37694;51.748;14.326;2023-03-24T00:42:46;8.35;;;7.45;;
51612;SDS011;37694;51.748;14.326;2023-03-24T00:45:14;10.18;;;7.10;;
51612;SDS011;37694;51.748;14.326;2023-03-24T00:47:44;11.48;;;7.65;;
51612;SDS011;37694;51.748;14.326;2023-03-24T00:50:12;8.68;;;7.70;;
51612;SDS011;37694;51.748;14.326;2023-03-24T00:52:41;8.45;;;7.32;;
51612;SDS011;37694;51.748;14.326;2023-03-24T00:55:08;9.98;;;7.53;;
51612;SDS011;37694;51.748;14.326;2023-03-24T00:57:38;8.15;;;7.35;;
51612;SDS011;37694;51.748;14.326;2023-03-24T01:00:05;9.27;;;7.25;;
51612;SDS011;37694;51.748;14.326;2023-03-24T01:02:44;8.55;;;7.60;;
51612;SDS011;37694;51.748;14.326;2023-03-24T01:05:11;7.93;;;7.13;;
51612;SDS011;37694;51.748;14.326;2023-03-24T01:07:38;7.82;;;7.03;;
51612;SDS011;37694;51.748;14.326;2023-03-24T01:10:06;8.88;;;7.55;;
51612;SDS011;37694;51.748;14.326;2023-03-24T01:12:38;8.77;;;7.82;;
51612;SDS011;37694;51.748;14.326;2023-03-24T01:15:06;9.20;;;7.32;;
51612;SDS011;37694;51.748;14.326;2023-03-24T01:17:38;7.13;;;6.43;;
51612;SDS011;37694;51.748;14.326;2023-03-24T01:20:04;10.45;;;7.63;;
51612;SDS011;37694;51.748;14.326;2023-03-24T01:22:32;7.68;;;6.90;;
51612;SDS011;37694;51.748;14.326;2023-03-24T01:25:02;8.63;;;7.72;;
51612;SDS011;37694;51.748;14.326;2023-03-24T01:27:29;9.75;;;7.78;;
51612;SDS011;37694;51.748;14.326;2023-03-24T01:29:58;8.70;;;7.90;;
51612;SDS011;37694;51.748;14.326;2023-03-24T01:32:26;7.68;;;6.72;;
51612;SDS011;37694;51.748;14.326;2023-03-24T01:34:52;8.13;;;7.28;;
51612;SDS011;37694;51.748;14.326;2023-03-24T01:37:18;8.02;;;7.03;;
51612;SDS011;37694;51.748;14.326;2023-03-24T01:39:44;8.77;;;7.45;;
51612;SDS011;37694;51.748;14.326;2023-03-24T01:42:20;8.45;;;7.60;;
51612;SDS011;37694;51.748;14.326;2023-03-24T01:44:48;9.18;;;7.93;;
51612;SDS011;37694;51.748;14.326;2023-03-24T01:47:15;8.93;;;7.63;;
51612;SDS011;37694;51.748;14.326;2023-03-24T01:52:24;9.52;;;8.30;;
51612;SDS011;37694;51.748;14.326;2023-03-24T01:54:57;9.18;;;7.30;;
51612;SDS011;37694;51.748;14.326;2023-03-24T01:57:30;8.60;;;7.32;;
51612;SDS011;37694;51.748;14.326;2023-03-24T02:00:01;9.73;;;8.10;;
51612;SDS011;37694;51.748;14.326;2023-03-24T02:02:31;8.70;;;7.22;;
51612;SDS011;37694;51.748;14.326;2023-03-24T02:05:04;9.73;;;8.63;;
51612;SDS011;37694;51.748;14.326;2023-03-24T02:07:35;8.93;;;8.02;;
51612;SDS011;37694;51.748;14.326;2023-03-24T02:10:03;8.18;;;7.15;;
51612;SDS011;37694;51.748;14.326;2023-03-24T02:12:32;8.75;;;7.63;;
51612;SDS011;37694;51.748;14.326;2023-03-24T02:14:58;10.25;;;8.13;;
51612;SDS011;37694;51.748;14.326;2023-03-24T02:25:57;8.98;;;8.07;;
51612;SDS011;37694;51.748;14.326;2023-03-24T02:50:48;8.52;;;7.10;;
51612;SDS011;37694;51.748;14.326;2023-03-24T02:58:58;8.32;;;6.80;;
51612;SDS011;37694;51.748;14.326;2023-03-24T03:01:31;10.75;;;7.55;;
51612;SDS011;37694;51.748;14.326;2023-03-24T03:04:04;7.90;;;7.10;;
51612;SDS011;37694;51.748;14.326;2023-03-24T03:06:42;8.20;;;6.97;;
51612;SDS011;37694;51.748;14.326;2023-03-24T03:11:43;8.82;;;6.63;;
51612;SDS011;37694;51.748;14.326;2023-03-24T03:14:19;7.68;;;6.55;;
51612;SDS011;37694;51.748;14.326;2023-03-24T03:16:59;7.22;;;6.32;;
51612;SDS011;37694;51.748;14.326;2023-03-24T03:19:55;9.10;;;6.72;;
51612;SDS011;37694;51.748;14.326;2023-03-24T03:22:29;7.13;;;6.43;;
51612;SDS011;37694;51.748;14.326;2023-03-24T03:25:10;7.13;;;6.45;;
51612;SDS011;37694;51.748;14.326;2023-03-24T03:27:40;7.15;;;6.45;;
51612;SDS011;37694;51.748;14.326;2023-03-24T03:32:38;7.28;;;6.30;;
51612;SDS011;37694;51.748;14.326;2023-03-24T03:40:24;6.95;;;6.25;;
51612;SDS011;37694;51.748;14.326;2023-03-24T03:42:56;6.65;;;6.00;;
51612;SDS011;37694;51.748;14.326;2023-03-24T03:45:22;6.93;;;5.82;;
51612;SDS011;37694;51.748;14.326;2023-03-24T03:47:48;8.35;;;6.10;;
51612;SDS011;37694;51.748;14.326;2023-03-24T03:50:14;6.60;;;5.90;;
51612;SDS011;37694;51.748;14.326;2023-03-24T03:52:40;6.70;;;5.93;;
51612;SDS011;37694;51.748;14.326;2023-03-24T03:55:08;6.88;;;5.68;;
51612;SDS011;37694;51.748;14.326;2023-03-24T03:57:36;12.88;;;6.20;;
51612;SDS011;37694;51.748;14.326;2023-03-24T04:00:03;7.45;;;6.18;;
51612;SDS011;37694;51.748;14.326;2023-03-24T04:05:40;9.13;;;5.82;;
51612;SDS011;37694;51.748;14.326;2023-03-24T04:11:16;6.03;;;5.43;;
51612;SDS011;37694;51.748;14.326;2023-03-24T04:23:04;6.25;;;5.45;;
51612;SDS011;37694;51.748;14.326;2023-03-24T04:25:47;5.93;;;5.32;;
51612;SDS011;37694;51.748;14.326;2023-03-24T04:28:41;6.25;;;5.63;;
51612;SDS011;37694;51.748;14.326;2023-03-24T04:31:41;6.38;;;5.70;;
51612;SDS011;37694;51.748;14.326;2023-03-24T04:34:24;6.95;;;6.03;;
51612;SDS011;37694;51.748;14.326;2023-03-24T04:37:20;6.25;;;5.50;;
51612;SDS011;37694;51.748;14.326;2023-03-24T04:39:46;5.82;;;5.22;;
51612;SDS011;37694;51.748;14.326;2023-03-24T04:42:22;6.13;;;5.45;;
51612;SDS011;37694;51.748;14.326;2023-03-24T04:44:55;6.20;;;5.07;;
51612;SDS011;37694;51.748;14.326;2023-03-24T04:47:23;5.78;;;5.22;;
51612;SDS011;37694;51.748;14.326;2023-03-24T04:49:59;5.15;;;4.65;;
51612;SDS011;37694;51.748;14.326;2023-03-24T04:52:30;6.40;;;5.47;;
51612;SDS011;37694;51.748;14.326;2023-03-24T04:54:56;5.43;;;4.93;;
51612;SDS011;37694;51.748;14.326;2023-03-24T04:57:22;6.45;;;4.60;;
51612;SDS011;37694;51.748;14.326;2023-03-24T04:59:48;6.70;;;5.93;;
51612;SDS011;37694;51.748;14.326;2023-03-24T05:02:13;6.72;;;5.10;;
51612;SDS011;37694;51.748;14.326;2023-03-24T05:04:39;5.38;;;4.88;;
51612;SDS011;37694;51.748;14.326;2023-03-24T05:07:05;5.82;;;5.22;;
51612;SDS011;37694;51.748;14.326;2023-03-24T05:09:31;5.28;;;4.80;;
51612;SDS011;37694;51.748;14.326;2023-03-24T05:11:57;5.38;;;4.80;;
51612;SDS011;37694;51.748;14.326;2023-03-24T05:14:22;6.85;;;4.90;;
51612;SDS011;37694;51.748;14.326;2023-03-24T05:16:48;5.28;;;4.78;;
51612;SDS011;37694;51.748;14.326;2023-03-24T05:19:14;6.40;;;5.28;;
51612;SDS011;37694;51.748;14.326;2023-03-24T05:21:40;5.57;;;4.97;;
51612;SDS011;37694;51.748;14.326;2023-03-24T05:24:06;5.20;;;4.70;;
51612;SDS011;37694;51.748;14.326;2023-03-24T05:26:32;5.00;;;4.60;;
51612;SDS011;37694;51.748;14.326;2023-03-24T05:28:59;5.13;;;4.60;;
51612;SDS011;37694;51.748;14.326;2023-03-24T05:31:25;5.22;;;4.72;;
51612;SDS011;37694;51.748;14.326;2023-03-24T05:33:51;5.22;;;4.72;;
51612;SDS011;37694;51.748;14.326;2023-03-24T05:36:16;5.93;;;4.80;;
51612;SDS011;37694;51.748;14.326;2023-03-24T05:38:42;5.03;;;4.53;;
51612;SDS011;37694;51.748;14.326;2023-03-24T05:41:08;5.88;;;5.18;;
51612;SDS011;37694;51.748;14.326;2023-03-24T05:43:33;5.35;;;4.40;;
51612;SDS011;37694;51.748;14.326;2023-03-24T05:45:59;4.65;;;4.18;;
51612;SDS011;37694;51.748;14.326;2023-03-24T05:48:25;8.48;;;4.40;;
51612;SDS011;37694;51.748;14.326;2023-03-24T05:50:51;5.30;;;4.50;;
51612;SDS011;37694;51.748;14.326;2023-03-24T05:53:17;10.15;;;4.65;;
51612;SDS011;37694;51.748;14.326;2023-03-24T05:55:46;6.25;;;4.45;;
51612;SDS011;37694;51.748;14.326;2023-03-24T05:58:12;15.90;;;4.53;;
51612;SDS011;37694;51.748;14.326;2023-03-24T06:00:39;7.60;;;4.32;;
51612;SDS011;37694;51.748;14.326;2023-03-24T06:03:05;22.95;;;4.80;;
51612;SDS011;37694;51.748;14.326;2023-03-24T06:05:31;5.47;;;4.10;;
51612;SDS011;37694;51.748;14.326;2023-03-24T06:07:57;8.23;;;4.63;;
51612;SDS011;37694;51.748;14.326;2023-03-24T06:10:24;9.70;;;4.10;;
51612;SDS011;37694;51.748;14.326;2023-03-24T06:12:50;7.97;;;3.92;;
51612;SDS011;37694;51.748;14.326;2023-03-24T06:15:16;10.65;;;4.10;;
51612;SDS011;37694;51.748;14.326;2023-03-24T06:17:43;7.53;;;4.38;;
51612;SDS011;37694;51.748;14.326;2023-03-24T06:20:11;6.05;;;4.45;;
51612;SDS011;37694;51.748;14.326;2023-03-24T06:22:40;12.52;;;3.92;;
51612;SDS011;37694;51.748;14.326;2023-03-24T06:25:08;11.50;;;4.20;;
51612;SDS011;37694;51.748;14.326;2023-03-24T06:27:35;7.28;;;4.30;;
51612;SDS011;37694;51.748;14.326;2023-03-24T06:30:00;4.05;;;3.58;;
51612;SDS011;37694;51.748;14.326;2023-03-24T06:32:27;5.72;;;3.78;;
51612;SDS011;37694;51.748;14.326;2023-03-24T06:34:53;5.82;;;3.95;;
51612;SDS011;37694;51.748;14.326;2023-03-24T06:37:22;14.18;;;4.25;;
51612;SDS011;37694;51.748;14.326;2023-03-24T06:39:48;6.78;;;3.65;;
51612;SDS011;37694;51.748;14.326;2023-03-24T06:42:14;6.70;;;3.83;;
51612;SDS011;37694;51.748;14.326;2023-03-24T06:44:40;10.25;;;3.80;;
51612;SDS011;37694;51.748;14.326;2023-03-24T06:47:06;8.13;;;3.55;;
51612;SDS011;37694;51.748;14.326;2023-03-24T06:49:32;12.20;;;4.05;;
51612;SDS011;37694;51.748;14.326;2023-03-24T06:51:59;32.13;;;8.15;;
51612;SDS011;37694;51.748;14.326;2023-03-24T06:54:25;50.42;;;11.77;;
51612;SDS011;37694;51.748;14.326;2023-03-24T06:56:51;40.47;;;10.48;;
51612;SDS011;37694;51.748;14.326;2023-03-24T06:59:17;37.25;;;8.95;;
51612;SDS011;37694;51.748;14.326;2023-03-24T07:01:47;31.60;;;7.82;;
51612;SDS011;37694;51.748;14.326;2023-03-24T07:04:17;43.33;;;8.52;;
51612;SDS011;37694;51.748;14.326;2023-03-24T07:06:43;33.38;;;7.47;;
51612;SDS011;37694;51.748;14.326;2023-03-24T07:09:09;31.88;;;7.32;;
51612;SDS011;37694;51.748;14.326;2023-03-24T07:11:36;26.90;;;6.30;;
51612;SDS011;37694;51.748;14.326;2023-03-24T07:14:02;39.00;;;6.85;;
51612;SDS011;37694;51.748;14.326;2023-03-24T07:16:28;21.33;;;6.93;;
51612;SDS011;37694;51.748;14.326;2023-03-24T07:18:54;26.65;;;7.18;;
51612;SDS011;37694;51.748;14.326;2023-03-24T07:21:21;37.53;;;8.35;;
51612;SDS011;37694;51.748;14.326;2023-03-24T07:23:46;29.85;;;6.45;;
51612;SDS011;37694;51.748;14.326;2023-03-24T07:26:12;25.88;;;6.75;;
51612;SDS011;37694;51.748;14.326;2023-03-24T07:28:38;28.58;;;6.35;;
51612;SDS011;37694;51.748;14.326;2023-03-24T07:31:04;30.02;;;6.97;;
51612;SDS011;37694;51.748;14.326;2023-03-24T07:33:34;30.48;;;7.85;;
51612;SDS011;37694;51.748;14.326;2023-03-24T07:36:01;21.90;;;6.03;;
51612;SDS011;37694;51.748;14.326;2023-03-24T07:38:27;25.30;;;6.32;;
51612;SDS011;37694;51.748;14.326;2023-03-24T07:40:53;20.55;;;6.47;;
51612;SDS011;37694;51.748;14.326;2023-03-24T07:43:18;14.65;;;5.78;;
51612;SDS011;37694;51.748;14.326;2023-03-24T07:45:44;16.05;;;5.55;;
51612;SDS011;37694;51.748;14.326;2023-03-24T07:48:10;18.13;;;5.68;;
51612;SDS011;37694;51.748;14.326;2023-03-24T07:50:36;27.55;;;5.70;;
51612;SDS011;37694;51.748;14.326;2023-03-24T07:53:02;23.45;;;6.13;;
51612;SDS011;37694;51.748;14.326;2023-03-24T07:55:28;25.65;;;5.88;;
51612;SDS011;37694;51.748;14.326;2023-03-24T07:57:53;14.77;;;4.82;;
51612;SDS011;37694;51.748;14.326;2023-03-24T08:00:20;18.33;;;4.90;;
51612;SDS011;37694;51.748;14.326;2023-03-24T08:02:49;14.25;;;5.20;;
51612;SDS011;37694;51.748;14.326;2023-03-24T08:05:17;19.02;;;5.82;;
51612;SDS011;37694;51.748;14.326;2023-03-24T08:07:46;13.40;;;5.10;;
51612;SDS011;37694;51.748;14.326;2023-03-24T08:10:24;23.33;;;5.22;;
51612;SDS011;37694;51.748;14.326;2023-03-24T08:12:51;18.65;;;4.78;;
51612;SDS011;37694;51.748;14.326;2023-03-24T08:15:16;19.63;;;5.75;;
51612;SDS011;37694;51.748;14.326;2023-03-24T08:17:42;18.30;;;5.22;;
51612;SDS011;37694;51.748;14.326;2023-03-24T08:20:09;18.92;;;5.75;;
51612;SDS011;37694;51.748;14.326;2023-03-24T08:22:42;19.83;;;5.28;;
51612;SDS011;37694;51.748;14.326;2023-03-24T08:25:09;15.30;;;4.80;;
51612;SDS011;37694;51.748;14.326;2023-03-24T08:27:37;16.85;;;5.07;;
51612;SDS011;37694;51.748;14.326;2023-03-24T08:30:07;12.95;;;4.75;;
51612;SDS011;37694;51.748;14.326;2023-03-24T08:32:39;10.70;;;4.00;;
51612;SDS011;37694;51.748;14.326;2023-03-24T08:35:10;10.93;;;4.55;;
51612;SDS011;37694;51.748;14.326;2023-03-24T08:37:38;17.23;;;4.85;;
51612;SDS011;37694;51.748;14.326;2023-03-24T08:40:07;10.00;;;4.00;;
51612;SDS011;37694;51.748;14.326;2023-03-24T08:42:38;19.30;;;4.35;;
51612;SDS011;37694;51.748;14.326;2023-03-24T08:45:05;11.57;;;3.85;;
51612;SDS011;37694;51.748;14.326;2023-03-24T08:47:32;11.02;;;4.22;;
51612;SDS011;37694;51.748;14.326;2023-03-24T08:49:58;9.20;;;4.35;;
51612;SDS011;37694;51.748;14.326;2023-03-24T08:52:24;7.28;;;4.03;;
51612;SDS011;37694;51.748;14.326;2023-03-24T08:54:50;10.07;;;4.55;;
51612;SDS011;37694;51.748;14.326;2023-03-24T08:57:16;10.23;;;3.67;;
51612;SDS011;37694;51.748;14.326;2023-03-24T08:59:42;30.52;;;4.78;;
51612;SDS011;37694;51.748;14.326;2023-03-24T09:02:11;22.20;;;4.78;;
51612;SDS011;37694;51.748;14.326;2023-03-24T09:04:37;16.30;;;4.95;;
51612;SDS011;37694;51.748;14.326;2023-03-24T09:07:04;19.90;;;5.13;;
51612;SDS011;37694;51.748;14.326;2023-03-24T09:09:30;15.25;;;4.85;;
51612;SDS011;37694;51.748;14.326;2023-03-24T09:11:57;16.35;;;4.20;;
51612;SDS011;37694;51.748;14.326;2023-03-24T09:14:22;10.70;;;3.95;;
51612;SDS011;37694;51.748;14.326;2023-03-24T09:16:48;20.25;;;3.92;;
51612;SDS011;37694;51.748;14.326;2023-03-24T09:19:15;18.52;;;4.40;;
51612;SDS011;37694;51.748;14.326;2023-03-24T09:21:43;14.40;;;4.22;;
51612;SDS011;37694;51.748;14.326;2023-03-24T09:24:10;15.88;;;4.13;;
51612;SDS011;37694;51.748;14.326;2023-03-24T09:26:36;15.05;;;4.03;;
51612;SDS011;37694;51.748;14.326;2023-03-24T09:29:02;20.77;;;4.45;;
51612;SDS011;37694;51.748;14.326;2023-03-24T09:31:28;24.98;;;5.25;;
51612;SDS011;37694;51.748;14.326;2023-03-24T09:33:54;17.92;;;4.35;;
51612;SDS011;37694;51.748;14.326;2023-03-24T09:36:20;29.17;;;5.22;;
51612;SDS011;37694;51.748;14.326;2023-03-24T09:38:46;14.20;;;4.05;;
51612;SDS011;37694;51.748;14.326;2023-03-24T09:41:20;14.35;;;3.95;;
51612;SDS011;37694;51.748;14.326;2023-03-24T09:43:51;13.55;;;4.05;;
51612;SDS011;37694;51.748;14.326;2023-03-24T09:46:34;16.50;;;4.32;;
51612;SDS011;37694;51.748;14.326;2023-03-24T09:49:03;18.05;;;4.53;;
51612;SDS011;37694;51.748;14.326;2023-03-24T09:51:37;10.95;;;4.53;;
51612;SDS011;37694;51.748;14.326;2023-03-24T09:56:43;16.77;;;4.40;;
51612;SDS011;37694;51.748;14.326;2023-03-24T09:59:20;24.77;;;4.80;;
51612;SDS011;37694;51.748;14.326;2023-03-24T10:02:03;8.07;;;3.90;;
51612;SDS011;37694;51.748;14.326;2023-03-24T10:04:40;14.82;;;3.92;;
51612;SDS011;37694;51.748;14.326;2023-03-24T10:07:14;16.27;;;4.05;;
51612;SDS011;37694;51.748;14.326;2023-03-24T10:09:50;16.40;;;4.28;;
51612;SDS011;37694;51.748;14.326;2023-03-24T10:12:36;11.65;;;3.60;;
51612;SDS011;37694;51.748;14.326;2023-03-24T10:17:53;17.73;;;4.22;;
51612;SDS011;37694;51.748;14.326;2023-03-24T10:28:43;9.40;;;3.42;;
51612;SDS011;37694;51.748;14.326;2023-03-24T10:31:14;11.25;;;3.83;;
51612;SDS011;37694;51.748;14.326;2023-03-24T10:33:42;15.60;;;3.45;;
51612;SDS011;37694;51.748;14.326;2023-03-24T10:38:40;14.95;;;3.65;;
51612;SDS011;37694;51.748;14.326;2023-03-24T10:41:06;18.23;;;3.35;;
51612;SDS011;37694;51.748;14.326;2023-03-24T10:43:36;16.10;;;3.65;;
51612;SDS011;37694;51.748;14.326;2023-03-24T10:46:02;13.23;;;3.25;;
51612;SDS011;37694;51.748;14.326;2023-03-24T10:48:44;12.82;;;3.88;;
51612;SDS011;37694;51.748;14.326;2023-03-24T10:54:09;15.88;;;3.67;;
51612;SDS011;37694;51.748;14.326;2023-03-24T10:56:43;19.48;;;3.65;;
51612;SDS011;37694;51.748;14.326;2023-03-24T11:02:23;13.65;;;3.67;;
51612;SDS011;37694;51.748;14.326;2023-03-24T11:04:57;7.47;;;3.05;;
51612;SDS011;37694;51.748;14.326;2023-03-24T11:07:44;34.60;;;8.27;;
51612;SDS011;37694;51.748;14.326;2023-03-24T11:10:13;29.63;;;7.13;;
51612;SDS011;37694;51.748;14.326;2023-03-24T11:12:57;26.55;;;5.60;;
51612;SDS011;37694;51.748;14.326;2023-03-24T11:15:33;16.25;;;4.22;;
51612;SDS011;37694;51.748;14.326;2023-03-24T11:20:36;13.93;;;4.13;;
51612;SDS011;37694;51.748;14.326;2023-03-24T11:23:07;11.43;;;3.03;;
51612;SDS011;37694;51.748;14.326;2023-03-24T11:28:53;16.80;;;4.10;;
51612;SDS011;37694;51.748;14.326;2023-03-24T11:31:25;5.93;;;3.22;;
51612;SDS011;37694;51.748;14.326;2023-03-24T11:34:02;7.63;;;2.88;;
51612;SDS011;37694;51.748;14.326;2023-03-24T11:50:04;10.77;;;3.20;;
51612;SDS011;37694;51.748;14.326;2023-03-24T11:52:39;10.85;;;3.28;;
51612;SDS011;37694;51.748;14.326;2023-03-24T11:55:15;14.00;;;4.28;;
51612;SDS011;37694;51.748;14.326;2023-03-24T11:57:48;19.60;;;5.18;;
51612;SDS011;37694;51.748;14.326;2023-03-24T12:00:28;8.37;;;3.87;;
51612;SDS011;37694;51.748;14.326;2023-03-24T12:05:41;11.82;;;3.95;;
51612;SDS011;37694;51.748;14.326;2023-03-24T12:19:33;18.42;;;3.72;;
51612;SDS011;37694;51.748;14.326;2023-03-24T12:25:24;9.27;;;3.50;;
51612;SDS011;37694;51.748;14.326;2023-03-24T12:47:30;21.38;;;5.60;;
51612;SDS011;37694;51.748;14.326;2023-03-24T13:00:51;12.32;;;4.45;;
51612;SDS011;37694;51.748;14.326;2023-03-24T13:03:46;11.27;;;4.50;;
51612;SDS011;37694;51.748;14.326;2023-03-24T13:06:32;16.58;;;4.97;;
51612;SDS011;37694;51.748;14.326;2023-03-24T13:09:21;16.60;;;4.45;;
51612;SDS011;37694;51.748;14.326;2023-03-24T13:12:20;8.82;;;4.35;;
51612;SDS011;37694;51.748;14.326;2023-03-24T13:17:38;12.48;;;3.83;;
51612;SDS011;37694;51.748;14.326;2023-03-24T13:20:13;9.65;;;3.60;;
51612;SDS011;37694;51.748;14.326;2023-03-24T13:28:57;9.00;;;4.88;;
51612;SDS011;37694;51.748;14.326;2023-03-24T13:31:51;8.55;;;3.08;;
51612;SDS011;37694;51.748;14.326;2023-03-24T13:37:01;12.60;;;3.25;;
51612;SDS011;37694;51.748;14.326;2023-03-24T13:39:39;7.03;;;2.92;;
51612;SDS011;37694;51.748;14.326;2023-03-24T13:42:13;7.93;;;3.10;;
51612;SDS011;37694;51.748;14.326;2023-03-24T13:44:57;10.65;;;2.63;;
51612;SDS011;37694;51.748;14.326;2023-03-24T13:47:25;6.35;;;2.78;;
51612;SDS011;37694;51.748;14.326;2023-03-24T13:50:00;11.00;;;3.30;;
51612;SDS011;37694;51.748;14.326;2023-03-24T13:52:38;15.13;;;3.33;;
51612;SDS011;37694;51.748;14.326;2023-03-24T13:55:12;8.45;;;2.85;;
51612;SDS011;37694;51.748;14.326;2023-03-24T13:58:05;12.23;;;4.15;;
51612;SDS011;37694;51.748;14.326;2023-03-24T14:03:37;20.73;;;3.78;;
51612;SDS011;37694;51.748;14.326;2023-03-24T14:06:05;19.17;;;3.67;;
51612;SDS011;37694;51.748;14.326;2023-03-24T14:14:05;8.15;;;3.47;;
51612;SDS011;37694;51.748;14.326;2023-03-24T14:24:28;29.20;;;4.18;;
51612;SDS011;37694;51.748;14.326;2023-03-24T14:26:56;23.98;;;4.03;;
51612;SDS011;37694;51.748;14.326;2023-03-24T14:29:36;14.30;;;3.80;;
51612;SDS011;37694;51.748;14.326;2023-03-24T14:32:13;19.95;;;3.90;;
51612;SDS011;37694;51.748;14.326;2023-03-24T14:34:56;18.25;;;3.80;;
51612;SDS011;37694;51.748;14.326;2023-03-24T14:37:24;24.05;;;3.63;;
51612;SDS011;37694;51.748;14.326;2023-03-24T14:39:51;16.65;;;3.17;;
51612;SDS011;37694;51.748;14.326;2023-03-24T14:44:59;18.45;;;3.28;;
51612;SDS011;37694;51.748;14.326;2023-03-24T14:47:26;14.52;;;2.88;;
51612;SDS011;37694;51.748;14.326;2023-03-24T14:49:58;17.17;;;2.88;;
51612;SDS011;37694;51.748;14.326;2023-03-24T14:52:34;10.95;;;2.60;;
51612;SDS011;37694;51.748;14.326;2023-03-24T14:55:12;10.77;;;2.92;;
51612;SDS011;37694;51.748;14.326;2023-03-24T14:57:47;10.10;;;2.50;;
51612;SDS011;37694;51.748;14.326;2023-03-24T15:00:27;7.55;;;2.30;;
51612;SDS011;37694;51.748;14.326;2023-03-24T15:03:00;12.70;;;2.60;;
51612;SDS011;37694;51.748;14.326;2023-03-24T15:05:42;15.57;;;2.53;;
51612;SDS011;37694;51.748;14.326;2023-03-24T15:08:15;8.32;;;2.15;;
51612;SDS011;37694;51.748;14.326;2023-03-24T15:10:43;18.05;;;3.92;;
51612;SDS011;37694;51.748;14.326;2023-03-24T15:16:15;10.82;;;4.25;;
51612;SDS011;37694;51.748;14.326;2023-03-24T15:18:55;13.30;;;4.30;;
51612;SDS011;37694;51.748;14.326;2023-03-24T15:21:36;8.52;;;3.92;;
51612;SDS011;37694;51.748;14.326;2023-03-24T15:26:45;14.48;;;4.28;;
51612;SDS011;37694;51.748;14.326;2023-03-24T15:29:16;14.30;;;4.13;;
51612;SDS011;37694;51.748;14.326;2023-03-24T15:31:42;13.13;;;3.67;;
51612;SDS011;37694;51.748;14.326;2023-03-24T15:36:54;13.77;;;4.20;;
51612;SDS011;37694;51.748;14.326;2023-03-24T15:39:25;7.82;;;3.45;;
51612;SDS011;37694;51.748;14.326;2023-03-24T15:41:52;11.30;;;3.67;;
51612;SDS011;37694;51.748;14.326;2023-03-24T15:44:19;9.90;;;3.40;;
51612;SDS011;37694;51.748;14.326;2023-03-24T15:46:48;15.77;;;3.42;;
51612;SDS011;37694;51.748;14.326;2023-03-24T15:49:30;9.88;;;3.75;;
51612;SDS011;37694;51.748;14.326;2023-03-24T15:52:02;19.08;;;4.00;;
51612;SDS011;37694;51.748;14.326;2023-03-24T15:54:47;10.23;;;3.15;;
51612;SDS011;37694;51.748;14.326;2023-03-24T15:57:22;26.20;;;3.75;;
51612;SDS011;37694;51.748;14.326;2023-03-24T15:59:50;11.10;;;3.00;;
51612;SDS011;37694;51.748;14.326;2023-03-24T16:02:30;20.15;;;3.90;;
51612;SDS011;37694;51.748;14.326;2023-03-24T16:05:03;10.50;;;2.85;;
51612;SDS011;37694;51.748;14.326;2023-03-24T16:07:56;9.57;;;3.17;;
51612;SDS011;37694;51.748;14.326;2023-03-24T16:10:31;18.02;;;3.38;;
51612;SDS011;37694;51.748;14.326;2023-03-24T16:15:54;20.42;;;3.70;;
51612;SDS011;37694;51.748;14.326;2023-03-24T16:18:24;18.88;;;3.55;;
51612;SDS011;37694;51.748;14.326;2023-03-24T16:21:01;8.70;;;3.25;;
51612;SDS011;37694;51.748;14.326;2023-03-24T16:23:33;18.60;;;2.97;;
51612;SDS011;37694;51.748;14.326;2023-03-24T16:25:58;14.35;;;3.33;;
51612;SDS011;37694;51.748;14.326;2023-03-24T16:28:24;17.30;;;3.40;;
51612;SDS011;37694;51.748;14.326;2023-03-24T16:30:54;19.90;;;4.07;;
51612;SDS011;37694;51.748;14.326;2023-03-24T16:33:26;16.67;;;2.75;;
51612;SDS011;37694;51.748;14.326;2023-03-24T16:35:54;12.95;;;3.33;;
51612;SDS011;37694;51.748;14.326;2023-03-24T16:38:20;15.50;;;3.55;;
51612;SDS011;37694;51.748;14.326;2023-03-24T16:40:53;9.90;;;2.97;;
51612;SDS011;37694;51.748;14.326;2023-03-24T16:43:20;12.18;;;2.63;;
51612;SDS011;37694;51.748;14.326;2023-03-24T16:45:46;8.48;;;2.80;;
51612;SDS011;37694;51.748;14.326;2023-03-24T16:48:13;16.75;;;3.25;;
51612;SDS011;37694;51.748;14.326;2023-03-24T16:50:41;14.43;;;3.22;;
51612;SDS011;37694;51.748;14.326;2023-03-24T16:53:08;13.75;;;3.17;;
51612;SDS011;37694;51.748;14.326;2023-03-24T16:55:34;17.58;;;3.13;;
51612;SDS011;37694;51.748;14.326;2023-03-24T16:58:01;14.02;;;3.15;;
51612;SDS011;37694;51.748;14.326;2023-03-24T17:00:27;11.90;;;3.25;;
51612;SDS011;37694;51.748;14.326;2023-03-24T17:02:54;25.58;;;3.58;;
51612;SDS011;37694;51.748;14.326;2023-03-24T17:05:24;11.30;;;3.35;;
51612;SDS011;37694;51.748;14.326;2023-03-24T17:07:52;8.80;;;2.20;;
51612;SDS011;37694;51.748;14.326;2023-03-24T17:10:22;22.80;;;3.30;;
51612;SDS011;37694;51.748;14.326;2023-03-24T17:12:48;21.15;;;3.67;;
51612;SDS011;37694;51.748;14.326;2023-03-24T17:15:16;14.77;;;3.00;;
51612;SDS011;37694;51.748;14.326;2023-03-24T17:17:47;14.20;;;3.10;;
51612;SDS011;37694;51.748;14.326;2023-03-24T17:20:13;13.70;;;2.85;;
51612;SDS011;37694;51.748;14.326;2023-03-24T17:22:40;23.23;;;3.67;;
51612;SDS011;37694;51.748;14.326;2023-03-24T17:25:09;22.55;;;3.40;;
51612;SDS011;37694;51.748;14.326;2023-03-24T17:27:35;17.05;;;3.47;;
51612;SDS011;37694;51.748;14.326;2023-03-24T17:30:01;24.33;;;3.40;;
51612;SDS011;37694;51.748;14.326;2023-03-24T17:32:31;16.63;;;3.40;;
51612;SDS011;37694;51.748;14.326;2023-03-24T17:34:57;16.40;;;3.00;;
51612;SDS011;37694;51.748;14.326;2023-03-24T17:37:26;22.67;;;3.88;;
51612;SDS011;37694;51.748;14.326;2023-03-24T17:39:52;17.25;;;3.63;;
51612;SDS011;37694;51.748;14.326;2023-03-24T17:42:20;11.10;;;3.58;;
51612;SDS011;37694;51.748;14.326;2023-03-24T17:44:46;20.73;;;3.20;;
51612;SDS011;37694;51.748;14.326;2023-03-24T17:47:12;21.85;;;3.30;;
51612;SDS011;37694;51.748;14.326;2023-03-24T17:49:37;22.58;;;3.65;;
51612;SDS011;37694;51.748;14.326;2023-03-24T17:52:03;11.52;;;3.05;;
51612;SDS011;37694;51.748;14.326;2023-03-24T17:54:28;14.18;;;3.33;;
51612;SDS011;37694;51.748;14.326;2023-03-24T17:56:54;14.48;;;3.28;;
51612;SDS011;37694;51.748;14.326;2023-03-24T17:59:20;9.45;;;3.25;;